createdAt,value
2019-03-26T00:01:03.032Z,90.40
2019-03-26T00:06:10.856Z,90.40
2019-03-26T00:11:17.744Z,90.50
2019-03-26T00:16:26.309Z,90.60
2019-03-26T00:21:33.446Z,90.60
2019-03-26T00:26:40.567Z,90.70
2019-03-26T00:31:47.416Z,90.70
2019-03-26T00:36:54.260Z,90.60
2019-03-26T00:42:02.458Z,90.50
2019-03-26T00:47:10.374Z,90.40
2019-03-26T00:52:17.166Z,90.30
2019-03-26T00:57:24.083Z,90.40
2019-03-26T01:02:31.080Z,90.60
2019-03-26T01:07:37.978Z,90.50
2019-03-26T01:12:44.817Z,90.30
2019-03-26T01:17:51.816Z,90.20
2019-03-26T01:22:58.849Z,90.60
2019-03-26T01:28:06.027Z,90.30
2019-03-26T01:33:13.252Z,90.50
2019-03-26T01:38:20.328Z,90.40
2019-03-26T01:43:27.057Z,90.10
2019-03-26T01:48:33.979Z,90.20
2019-03-26T01:53:41.141Z,89.60
2019-03-26T01:58:48.154Z,89.10
2019-03-26T02:03:55.487Z,88.90
2019-03-26T02:09:02.372Z,88.70
2019-03-26T02:14:09.377Z,88.70
2019-03-26T02:19:16.373Z,88.30
2019-03-26T02:24:23.442Z,87.90
2019-03-26T02:29:30.656Z,87.80
2019-03-26T02:34:37.678Z,87.30
2019-03-26T02:39:45.371Z,86.60
2019-03-26T02:44:52.306Z,86.40
2019-03-26T02:49:59.338Z,86.00
2019-03-26T02:55:07.124Z,85.50
2019-03-26T03:00:14.063Z,85.30
2019-03-26T03:05:34.283Z,84.40
2019-03-26T03:10:29.556Z,85.30
2019-03-26T03:15:36.718Z,84.60
2019-03-26T03:20:43.773Z,83.90
2019-03-26T03:25:51.082Z,82.60
2019-03-26T03:30:58.882Z,82.10
2019-03-26T03:36:05.709Z,81.60
2019-03-26T03:41:13.366Z,81.50
2019-03-26T03:46:20.431Z,81.40
2019-03-26T03:51:27.917Z,82.10
2019-03-26T03:56:35.107Z,81.90
2019-03-26T04:01:42.116Z,81.30
2019-03-26T04:06:48.996Z,81.10
2019-03-26T04:11:56.042Z,80.20
2019-03-26T04:17:03.172Z,79.90
2019-03-26T04:22:10.183Z,80.00
2019-03-26T04:27:17.137Z,78.70
2019-03-26T04:32:24.092Z,79.10
2019-03-26T04:37:31.501Z,77.50
2019-03-26T04:42:38.673Z,77.90
2019-03-26T04:47:45.457Z,75.70
2019-03-26T04:52:52.409Z,75.40
2019-03-26T04:57:59.411Z,76.50
2019-03-26T05:03:06.394Z,76.20
2019-03-26T05:08:13.366Z,76.30
2019-03-26T05:13:20.304Z,73.30
2019-03-26T05:18:27.571Z,74.10
2019-03-26T05:23:34.418Z,72.20
2019-03-26T05:28:41.359Z,71.10
2019-03-26T05:33:48.256Z,69.80
2019-03-26T05:38:55.845Z,70.70
2019-03-26T05:44:02.807Z,67.90
2019-03-26T05:49:10.017Z,65.80
2019-03-26T05:54:18.362Z,64.20
2019-03-26T05:59:25.569Z,63.90
2019-03-26T06:04:32.581Z,63.40
2019-03-26T06:09:41.442Z,62.80
2019-03-26T06:14:48.296Z,63.10
2019-03-26T06:19:55.977Z,63.50
2019-03-26T06:25:02.915Z,63.30
2019-03-26T06:30:11.798Z,63.10
2019-03-26T06:35:18.544Z,62.30
2019-03-26T06:40:25.531Z,60.70
2019-03-26T06:45:32.458Z,60.40
2019-03-26T06:50:39.811Z,59.60
2019-03-26T06:55:46.963Z,61.00
2019-03-26T07:00:54.094Z,60.40
2019-03-26T07:06:01.069Z,60.50
2019-03-26T07:11:08.039Z,60.50
2019-03-26T07:16:14.985Z,60.50
2019-03-26T07:21:21.911Z,60.60
2019-03-26T07:26:28.851Z,60.60
2019-03-26T07:31:35.872Z,58.90
2019-03-26T07:36:42.894Z,59.90
2019-03-26T07:41:50.057Z,59.80
2019-03-26T07:46:56.856Z,60.00
2019-03-26T07:52:03.764Z,59.10
2019-03-26T07:57:11.048Z,59.50
2019-03-26T08:02:18.189Z,58.80
2019-03-26T08:07:25.105Z,59.50
2019-03-26T08:12:32.956Z,59.60
2019-03-26T08:17:39.936Z,59.70
2019-03-26T08:22:46.994Z,59.50
2019-03-26T08:27:54.310Z,58.90
2019-03-26T08:33:01.394Z,58.90
2019-03-26T08:38:12.820Z,58.20
2019-03-26T08:43:17.369Z,58.40
2019-03-26T08:48:24.599Z,58.60
2019-03-26T08:53:31.387Z,58.00
2019-03-26T08:58:38.529Z,57.80
2019-03-26T09:03:45.671Z,57.10
2019-03-26T09:08:52.811Z,56.90
2019-03-26T09:13:59.818Z,57.70
2019-03-26T09:19:06.880Z,58.00
2019-03-26T09:24:13.941Z,58.00
2019-03-26T09:29:20.932Z,57.70
2019-03-26T09:35:18.954Z,56.90
2019-03-26T09:40:25.925Z,57.60
2019-03-26T09:45:34.251Z,57.60
2019-03-26T09:50:42.659Z,57.40
2019-03-26T09:55:49.745Z,57.40
2019-03-26T10:00:56.596Z,57.50
2019-03-26T10:06:03.818Z,57.80
2019-03-26T10:11:15.426Z,57.80
2019-03-26T10:16:22.790Z,57.70
2019-03-26T10:21:29.942Z,57.60
2019-03-26T10:26:36.917Z,57.80
2019-03-26T10:31:44.197Z,57.80
2019-03-26T10:36:51.034Z,57.80
2019-03-26T10:41:57.986Z,57.90
2019-03-26T10:47:04.975Z,56.90
2019-03-26T10:52:12.341Z,57.50
2019-03-26T10:57:21.761Z,57.00
2019-03-26T11:02:29.350Z,57.30
2019-03-26T11:07:36.982Z,58.00
2019-03-26T11:12:44.154Z,58.40
2019-03-26T11:17:50.955Z,58.70
2019-03-26T11:22:59.208Z,58.80
2019-03-26T11:28:06.183Z,58.70
2019-03-26T11:33:14.308Z,58.50
2019-03-26T11:38:21.210Z,58.70
2019-03-26T11:43:29.352Z,58.50
2019-03-26T11:48:36.470Z,58.40
2019-03-26T11:53:43.681Z,58.90
2019-03-26T11:58:51.462Z,58.50
2019-03-26T12:03:58.600Z,58.40
2019-03-26T12:09:07.022Z,58.40
2019-03-26T12:14:14.435Z,58.40
2019-03-26T12:19:21.529Z,58.40
2019-03-26T12:24:29.607Z,58.30
2019-03-26T12:29:36.693Z,58.80
2019-03-26T12:34:43.929Z,59.00
2019-03-26T12:39:59.358Z,60.20
2019-03-26T12:45:00.406Z,62.00
2019-03-26T12:50:10.177Z,62.60
2019-03-26T12:55:17.285Z,64.80
2019-03-26T13:00:27.386Z,64.70
2019-03-26T13:05:35.137Z,65.30
2019-03-26T13:10:52.869Z,65.50
2019-03-26T13:15:50.899Z,66.30
2019-03-26T13:20:59.441Z,66.60
2019-03-26T13:26:06.642Z,66.60
2019-03-26T13:31:14.558Z,66.80
2019-03-26T13:36:23.158Z,67.00
2019-03-26T13:41:30.808Z,67.60
2019-03-26T13:46:39.602Z,67.80
2019-03-26T13:51:47.767Z,68.20
2019-03-26T13:56:54.789Z,68.50
2019-03-26T14:02:04.029Z,69.00
2019-03-26T14:07:16.008Z,70.60
2019-03-26T14:12:23.927Z,71.70
2019-03-26T14:17:31.097Z,72.70
2019-03-26T14:22:38.976Z,72.80
2019-03-26T14:27:46.138Z,73.50
2019-03-26T14:32:53.278Z,73.10
2019-03-26T14:38:00.564Z,72.30
2019-03-26T14:43:07.559Z,73.00
2019-03-26T14:48:14.548Z,73.90
2019-03-26T14:53:21.405Z,75.00
2019-03-26T14:58:29.206Z,75.10
2019-03-26T15:03:36.119Z,74.60
2019-03-26T15:08:43.116Z,73.50
2019-03-26T15:13:50.263Z,73.90
2019-03-26T15:18:58.196Z,73.20
2019-03-26T15:24:05.434Z,72.50
2019-03-26T15:29:12.520Z,71.70
2019-03-26T15:34:19.732Z,71.50
2019-03-26T15:39:26.883Z,71.60
2019-03-26T15:44:33.754Z,71.60
2019-03-26T15:49:40.693Z,71.70
2019-03-26T15:54:47.747Z,72.50
2019-03-26T15:59:54.920Z,72.50
2019-03-26T16:05:02.917Z,72.50
2019-03-26T16:10:09.800Z,72.50
2019-03-26T16:15:16.870Z,72.60
2019-03-26T16:20:23.755Z,72.50
2019-03-26T16:25:30.647Z,72.60
2019-03-26T16:30:38.411Z,74.20
2019-03-26T16:35:45.335Z,75.80
2019-03-26T16:40:52.408Z,76.10
2019-03-26T16:45:59.647Z,76.20
2019-03-26T16:51:06.659Z,75.50
2019-03-26T16:56:13.630Z,75.60
2019-03-26T17:01:20.947Z,75.60
2019-03-26T17:06:28.178Z,75.50
2019-03-26T17:11:35.075Z,75.70
2019-03-26T17:16:42.126Z,76.00
2019-03-26T17:21:49.122Z,76.10
2019-03-26T17:26:56.145Z,76.20
2019-03-26T17:32:02.900Z,76.30
2019-03-26T17:37:09.977Z,76.70
2019-03-26T17:42:17.742Z,77.00
2019-03-26T17:47:24.878Z,76.90
2019-03-26T17:52:32.185Z,77.40
2019-03-26T17:57:39.422Z,77.70
2019-03-26T18:02:46.395Z,77.90
2019-03-26T18:07:53.822Z,78.30
2019-03-26T18:13:00.739Z,78.50
2019-03-26T18:18:08.531Z,79.40
2019-03-26T18:23:15.509Z,80.80
2019-03-26T18:28:22.070Z,81.90
2019-03-26T18:33:28.875Z,82.10
2019-03-26T18:38:36.103Z,81.70
2019-03-26T18:43:43.184Z,81.30
2019-03-26T18:48:50.100Z,82.00
2019-03-26T18:53:57.265Z,81.00
2019-03-26T18:59:04.166Z,80.90
2019-03-26T19:04:11.317Z,81.10
2019-03-26T19:09:18.208Z,81.10
2019-03-26T19:14:25.017Z,81.50
2019-03-26T19:19:32.063Z,81.80
2019-03-26T19:24:38.995Z,82.40
2019-03-26T19:29:46.523Z,83.00
2019-03-26T19:34:53.860Z,83.60
2019-03-26T19:40:00.620Z,84.00
2019-03-26T19:45:07.640Z,84.50
2019-03-26T19:50:15.102Z,84.70
2019-03-26T19:55:22.183Z,84.30
2019-03-26T20:00:28.967Z,84.30
2019-03-26T20:05:36.619Z,84.50
2019-03-26T20:10:43.566Z,84.30
2019-03-26T20:15:50.522Z,84.30
2019-03-26T20:20:57.260Z,84.10
2019-03-26T20:26:04.168Z,84.30
2019-03-26T20:31:11.150Z,84.10
2019-03-26T20:36:18.310Z,84.00
2019-03-26T20:41:25.401Z,84.00
2019-03-26T20:46:33.301Z,85.00
2019-03-26T20:51:40.323Z,86.10
2019-03-26T20:56:47.966Z,85.90
2019-03-26T21:01:54.884Z,85.50
2019-03-26T21:07:01.933Z,85.40
2019-03-26T21:12:08.763Z,85.60
2019-03-26T21:17:15.866Z,85.50
2019-03-26T21:22:22.880Z,85.40
2019-03-26T21:27:29.793Z,85.80
2019-03-26T21:32:36.893Z,86.60
2019-03-26T21:37:43.940Z,85.90
2019-03-26T21:42:50.986Z,85.90
2019-03-26T21:47:58.899Z,86.30
2019-03-26T21:53:06.061Z,86.60
2019-03-26T21:58:13.196Z,86.60
2019-03-26T22:03:20.094Z,86.90
2019-03-26T22:08:26.964Z,87.60
2019-03-26T22:13:33.929Z,88.30
2019-03-26T22:18:40.849Z,89.10
2019-03-26T22:23:47.873Z,89.10
2019-03-26T22:28:54.869Z,89.20
2019-03-26T22:34:02.033Z,90.00
2019-03-26T22:39:09.263Z,89.20
2019-03-26T22:44:16.191Z,89.70
2019-03-26T22:49:23.180Z,90.10
2019-03-26T22:54:30.225Z,90.10
2019-03-26T22:59:37.293Z,90.00
2019-03-26T23:04:44.319Z,89.60
2019-03-26T23:09:51.759Z,90.00
2019-03-26T23:14:59.201Z,89.50
2019-03-26T23:20:06.524Z,89.50
2019-03-26T23:25:13.404Z,89.70
2019-03-26T23:30:20.523Z,90.20
2019-03-26T23:35:28.106Z,90.10
2019-03-26T23:40:35.214Z,90.30
2019-03-26T23:45:42.169Z,90.50
2019-03-26T23:50:49.200Z,90.60
2019-03-26T23:55:56.516Z,90.70
